Time;durP1;ratioP1;P1;durP2;ratioP2;P2;SDS_P1;SDS_P2;PMS_P1;PMS_P2;Temp;Humidity;BMP_temperature;BMP_pressure;BME280_temperature;BME280_humidity;BME280_pressure;Samples;Min_cycle;Max_cycle;Signal;HPM_P1;HPM_P2
2022/12/21 00:00:18;;;;;;;0.80;0.80;;;;;;;;;;5053619;28;20706;-75
2022/12/21 00:02:44;;;;;;;0.70;0.70;;;;;;;;;;5052967;28;20172;-75
2022/12/21 00:05:10;;;;;;;0.80;0.80;;;;;;;;;;5053443;28;20228;-75
2022/12/21 00:07:36;;;;;;;0.73;0.73;;;;;;;;;;5053650;28;20182;-76
2022/12/21 00:10:03;;;;;;;0.80;0.80;;;;;;;;;;5053522;28;20218;-76
2022/12/21 00:12:30;;;;;;;0.73;0.73;;;;;;;;;;5052940;28;20232;-75
2022/12/21 00:14:56;;;;;;;0.70;0.70;;;;;;;;;;5053378;28;20179;-75
2022/12/21 00:17:22;;;;;;;0.80;0.80;;;;;;;;;;5053190;28;20265;-75
2022/12/21 00:19:48;;;;;;;0.80;0.80;;;;;;;;;;5053138;28;20178;-76
2022/12/21 00:22:14;;;;;;;0.70;0.70;;;;;;;;;;5053108;28;20174;-76
2022/12/21 00:24:39;;;;;;;0.80;0.80;;;;;;;;;;5053342;28;20229;-76
2022/12/21 00:27:05;;;;;;;0.80;0.80;;;;;;;;;;5053134;28;20180;-75
2022/12/21 00:29:31;;;;;;;0.80;0.80;;;;;;;;;;5052990;28;20302;-76
2022/12/21 00:31:57;;;;;;;0.77;0.77;;;;;;;;;;5052549;28;20182;-76
2022/12/21 00:34:23;;;;;;;0.80;0.80;;;;;;;;;;5052565;28;20195;-75
2022/12/21 00:36:50;;;;;;;0.87;0.87;;;;;;;;;;5053083;28;20261;-75
2022/12/21 00:39:17;;;;;;;0.80;0.80;;;;;;;;;;5053022;28;20256;-75
2022/12/21 00:41:43;;;;;;;0.90;0.90;;;;;;;;;;5034786;28;20176;-76
2022/12/21 00:44:09;;;;;;;0.70;0.70;;;;;;;;;;5052224;28;20191;-77
2022/12/21 00:46:35;;;;;;;0.80;0.80;;;;;;;;;;5052638;28;20552;-75
2022/12/21 00:49:03;;;;;;;0.70;0.70;;;;;;;;;;5052495;28;20210;-76
2022/12/21 00:51:29;;;;;;;0.80;0.80;;;;;;;;;;5052814;28;20211;-76
2022/12/21 00:53:56;;;;;;;0.90;0.90;;;;;;;;;;5052108;28;20230;-76
2022/12/21 00:56:22;;;;;;;0.80;0.80;;;;;;;;;;5052581;28;20174;-75
2022/12/21 00:58:48;;;;;;;0.83;0.83;;;;;;;;;;5052594;28;20232;-76
2022/12/21 01:01:16;;;;;;;0.80;0.80;;;;;;;;;;5052413;28;20183;-76
2022/12/21 01:03:42;;;;;;;0.80;0.80;;;;;;;;;;5052128;28;20195;-76
2022/12/21 01:06:16;;;;;;;0.70;0.70;;;;;;;;;;5052501;28;20175;-75
2022/12/21 01:08:42;;;;;;;0.70;0.70;;;;;;;;;;5052306;28;20178;-75
2022/12/21 01:11:09;;;;;;;0.83;0.83;;;;;;;;;;5052037;28;20549;-76
2022/12/21 01:13:35;;;;;;;0.70;0.70;;;;;;;;;;5051919;28;20195;-75
2022/12/21 01:16:01;;;;;;;0.80;0.80;;;;;;;;;;5051771;28;20190;-75
2022/12/21 01:18:27;;;;;;;0.77;0.77;;;;;;;;;;5052287;28;20698;-75
2022/12/21 01:20:55;;;;;;;0.80;0.80;;;;;;;;;;5052090;28;20685;-75
2022/12/21 01:23:21;;;;;;;0.80;0.80;;;;;;;;;;5051667;28;20195;-76
2022/12/21 01:25:48;;;;;;;0.70;0.70;;;;;;;;;;5051954;28;20229;-76
2022/12/21 01:28:14;;;;;;;0.60;0.60;;;;;;;;;;5051937;28;20240;-75
2022/12/21 01:30:40;;;;;;;0.80;0.80;;;;;;;;;;5051693;28;20631;-75
2022/12/21 01:33:07;;;;;;;0.90;0.90;;;;;;;;;;5051201;28;20674;-75
2022/12/21 01:35:33;;;;;;;0.80;0.80;;;;;;;;;;5051696;28;20182;-76
2022/12/21 01:37:59;;;;;;;0.70;0.70;;;;;;;;;;5051623;28;20175;-76
2022/12/21 01:40:29;;;;;;;0.80;0.80;;;;;;;;;;5051543;28;20186;-76
2022/12/21 01:42:55;;;;;;;0.80;0.80;;;;;;;;;;5051002;28;20195;-75
2022/12/21 01:45:35;;;;;;;0.80;0.80;;;;;;;;;;5051817;28;20171;-75
2022/12/21 01:48:03;;;;;;;0.80;0.80;;;;;;;;;;5051479;28;20638;-75
2022/12/21 01:50:39;;;;;;;0.77;0.77;;;;;;;;;;5051499;28;20579;-76
2022/12/21 01:53:11;;;;;;;0.70;0.70;;;;;;;;;;5050948;28;20194;-76
2022/12/21 01:55:38;;;;;;;0.80;0.80;;;;;;;;;;5051357;28;20193;-76
2022/12/21 01:58:06;;;;;;;0.83;0.83;;;;;;;;;;5051387;28;20212;-75
2022/12/21 02:00:32;;;;;;;0.80;0.80;;;;;;;;;;5051598;28;20190;-75
2022/12/21 02:03:01;;;;;;;0.80;0.80;;;;;;;;;;5050991;28;20195;-75
2022/12/21 02:05:36;;;;;;;0.80;0.80;;;;;;;;;;5051325;28;20175;-74
2022/12/21 02:08:03;;;;;;;0.80;0.80;;;;;;;;;;5051266;28;20267;-74
2022/12/21 02:10:30;;;;;;;0.80;0.80;;;;;;;;;;5051400;28;20218;-74
2022/12/21 02:12:59;;;;;;;0.70;0.70;;;;;;;;;;5050932;28;20189;-75
2022/12/21 02:15:29;;;;;;;0.90;0.90;;;;;;;;;;5051258;28;20178;-76
2022/12/21 02:18:13;;;;;;;0.80;0.80;;;;;;;;;;5144977;23;20238;-81
2022/12/21 02:20:39;;;;;;;0.77;0.77;;;;;;;;;;5038544;28;20164;-81
2022/12/21 02:23:16;;;;;;;0.80;0.80;;;;;;;;;;5038235;28;20555;-83
2022/12/21 02:26:01;;;;;;;0.83;0.83;;;;;;;;;;5039281;28;20176;-83
2022/12/21 02:28:45;;;;;;;0.80;0.80;;;;;;;;;;5040914;28;20539;-85
2022/12/21 02:31:11;;;;;;;0.90;0.90;;;;;;;;;;5036400;28;20256;-81
2022/12/21 02:33:46;;;;;;;0.80;0.80;;;;;;;;;;5037723;28;20200;-82
2022/12/21 02:36:15;;;;;;;0.80;0.80;;;;;;;;;;5038923;28;20707;-80
2022/12/21 02:38:44;;;;;;;0.80;0.80;;;;;;;;;;5038586;28;20226;-83
2022/12/21 02:41:19;;;;;;;0.70;0.70;;;;;;;;;;5039176;28;20594;-80
2022/12/21 02:44:13;;;;;;;0.80;0.80;;;;;;;;;;5034806;28;20199;-78
2022/12/21 02:46:58;;;;;;;0.80;0.80;;;;;;;;;;5035049;28;20176;-80
2022/12/21 02:49:27;;;;;;;0.70;0.70;;;;;;;;;;5034849;28;20261;-79
2022/12/21 02:51:53;;;;;;;0.80;0.80;;;;;;;;;;5034697;28;20192;-79
2022/12/21 02:54:19;;;;;;;0.80;0.80;;;;;;;;;;5034590;28;20200;-79
2022/12/21 02:56:45;;;;;;;0.80;0.80;;;;;;;;;;5034801;28;20172;-81
2022/12/21 02:59:13;;;;;;;0.80;0.80;;;;;;;;;;5034480;28;20256;-78
2022/12/21 03:01:51;;;;;;;0.80;0.80;;;;;;;;;;5036808;28;20183;-82
2022/12/21 03:04:36;;;;;;;0.90;0.90;;;;;;;;;;5042130;28;20686;-81
2022/12/21 03:07:08;;;;;;;0.90;0.90;;;;;;;;;;5040624;28;20172;-82
2022/12/21 03:09:37;;;;;;;0.80;0.80;;;;;;;;;;5043450;28;20212;-82
2022/12/21 03:12:07;;;;;;;0.90;0.90;;;;;;;;;;5045786;28;20191;-82
2022/12/21 03:14:39;;;;;;;0.83;0.83;;;;;;;;;;5043992;28;20580;-82
2022/12/21 03:17:25;;;;;;;0.90;0.90;;;;;;;;;;5040430;28;20690;-83
2022/12/21 03:20:32;;;;;;;0.90;0.90;;;5.30;1.00;;;;;;5039555;28;20180;-82
2022/12/21 03:23:03;;;;;;;0.60;0.60;;;;;;;;;;5038475;28;20214;-81
2022/12/21 03:25:31;;;;;;;0.80;0.80;;;;;;;;;;5040352;28;20203;-80
2022/12/21 03:28:01;;;;;;;0.70;0.70;;;;;;;;;;5041222;28;20190;-82
2022/12/21 03:30:27;;;;;;;0.70;0.70;;;;;;;;;;5040883;28;20215;-81
2022/12/21 03:33:05;;;;;;;0.70;0.70;;;;;;;;;;5040294;28;20236;-80
2022/12/21 03:35:43;;;;;;;0.80;0.80;;;;;;;;;;5039584;28;20195;-81
2022/12/21 03:38:12;;;;;;;0.70;0.70;;;;;;;;;;5039454;28;20216;-80
2022/12/21 03:40:41;;;;;;;0.80;0.80;;;;;;;;;;5038760;28;20203;-79
2022/12/21 03:43:11;;;;;;;0.80;0.80;;;;;;;;;;5039852;28;20191;-81
2022/12/21 03:45:43;;;;;;;0.70;0.70;;;;;;;;;;5040200;28;20178;-80
2022/12/21 03:48:13;;;;;;;0.90;0.90;;;;;;;;;;5039932;28;20176;-79
2022/12/21 03:50:41;;;;;;;0.90;0.90;;;;;;;;;;5040078;28;20211;-82
2022/12/21 03:53:12;;;;;;;0.80;0.80;;;;;;;;;;5038696;28;20279;-80
2022/12/21 03:55:41;;;;;;;0.60;0.60;;;;;;;;;;5040198;28;20214;-81
2022/12/21 03:58:07;;;;;;;0.70;0.70;;;;;;;;;;5049783;28;20176;-83
2022/12/21 04:00:38;;;;;;;0.80;0.80;;;;;;;;;;5057399;28;20187;-84
2022/12/21 04:03:17;;;;;;;0.70;0.70;;;;;;;;;;5056975;28;20271;-81
2022/12/21 04:05:54;;;;;;;0.77;0.77;;;;;;;;;;5040697;28;20637;-80
2022/12/21 04:08:21;;;;;;;0.80;0.80;;;;;;;;;;5037040;28;20621;-79
2022/12/21 04:10:48;;;;;;;0.80;0.80;;;;;;;;;;5037610;28;20208;-82
2022/12/21 04:13:14;;;;;;;0.90;0.90;;;;;;;;;;5037082;28;20207;-79
2022/12/21 04:21:09;;;;;;;0.70;0.70;;;;;;;;;;5037316;28;20602;-82
2022/12/21 04:29:05;;;;;;;0.80;0.80;;;;;;;;;;5042116;28;20202;-79
2022/12/21 04:31:31;;;;;;;0.90;0.90;;;;;;;;;;5042334;28;20649;-79
2022/12/21 04:33:57;;;;;;;0.80;0.80;;;;;;;;;;5042928;28;20196;-79
2022/12/21 04:39:07;;;;;;;0.80;0.80;;;;;;;;;;5043485;28;20260;-80
2022/12/21 04:41:33;;;;;;;0.77;0.77;;;;;;;;;;5042845;28;20183;-80
2022/12/21 04:43:59;;;;;;;0.70;0.70;;;;;;;;;;5039960;28;20202;-78
2022/12/21 04:46:25;;;;;;;0.80;0.80;;;;;;;;;;5043026;28;20234;-79
2022/12/21 04:48:51;;;;;;;0.70;0.70;;;;;;;;;;5042034;28;20171;-80
2022/12/21 04:51:19;;;;;;;0.80;0.80;;;;;;;;;;5045189;28;20175;-80
2022/12/21 04:53:45;;;;;;;0.73;0.73;;;;;;;;;;5043763;28;20200;-79
2022/12/21 04:56:11;;;;;;;0.80;0.80;;;;;;;;;;5045220;28;20263;-79
2022/12/21 04:58:37;;;;;;;0.80;0.80;;;;;;;;;;5044499;28;20182;-79
2022/12/21 05:01:08;;;;;;;0.70;0.70;;;;;;;;;;5045077;28;20621;-79
2022/12/21 05:03:34;;;;;;;0.80;0.80;;;;;;;;;;5041705;28;20275;-78
2022/12/21 05:05:59;;;;;;;0.77;0.77;;;;;;;;;;5041541;28;20290;-78
2022/12/21 05:08:25;;;;;;;0.80;0.80;;;;;;;;;;5043297;28;20207;-79
2022/12/21 05:10:51;;;;;;;0.70;0.70;;;;;;;;;;5043291;28;20221;-78
2022/12/21 05:13:17;;;;;;;0.70;0.70;;;;;;;;;;5042965;28;20263;-78
2022/12/21 05:15:43;;;;;;;0.70;0.70;;;;;;;;;;5042001;28;20552;-79
2022/12/21 05:18:09;;;;;;;0.70;0.70;;;;;;;;;;5040177;28;20203;-78
2022/12/21 05:20:35;;;;;;;0.80;0.80;;;;;;;;;;5037281;28;20176;-78
2022/12/21 05:23:01;;;;;;;0.80;0.80;;;;;;;;;;5036052;28;20378;-78
2022/12/21 05:25:27;;;;;;;0.70;0.70;;;;;;;;;;5035408;28;20233;-78
2022/12/21 05:27:53;;;;;;;0.80;0.80;;;;;;;;;;5035359;28;20234;-78
2022/12/21 05:30:19;;;;;;;0.70;0.70;;;;;;;;;;5034808;28;20219;-78
2022/12/21 05:32:45;;;;;;;0.70;0.70;;;;;;;;;;5039079;28;20176;-79
2022/12/21 05:35:11;;;;;;;0.80;0.80;;;;;;;;;;5039781;28;20164;-78
2022/12/21 05:37:37;;;;;;;0.77;0.77;;;;;;;;;;5041344;28;20176;-78
2022/12/21 05:40:03;;;;;;;0.80;0.80;;;;;;;;;;5043815;28;20191;-78
2022/12/21 05:42:29;;;;;;;0.80;0.80;;;;;;;;;;5040723;28;20180;-78
2022/12/21 05:44:55;;;;;;;0.80;0.80;;;;;;;;;;5045916;28;20255;-79
2022/12/21 05:47:21;;;;;;;0.80;0.80;;;;;;;;;;5048572;28;20171;-80
2022/12/21 05:49:47;;;;;;;0.80;0.80;;;;;;;;;;5049747;28;20218;-80
2022/12/21 05:52:14;;;;;;;0.70;0.70;;;;;;;;;;5047168;28;20239;-81
2022/12/21 05:54:41;;;;;;;0.77;0.77;;;;;;;;;;5041428;28;20290;-77
2022/12/21 05:57:07;;;;;;;0.80;0.80;;;;;;;;;;5035450;28;20175;-78
2022/12/21 05:59:32;;;;;;;0.80;0.80;;;5.60;99.90;;;;;;5035191;28;20180;-77
2022/12/21 06:01:58;;;;;;;0.80;0.80;;;;;;;;;;5035595;28;20184;-78
2022/12/21 06:04:24;;;;;;;0.80;0.80;;;;;;;;;;5034067;28;20199;-78
2022/12/21 06:06:50;;;;;;;0.70;0.70;;;;;;;;;;5032524;28;20252;-80
2022/12/21 06:09:16;;;;;;;0.70;0.70;;;6.40;99.90;;;;;;5041070;28;20444;-79
2022/12/21 06:11:41;;;;;;;0.70;0.70;;;6.70;99.90;;;;;;5059963;28;20202;-79
2022/12/21 06:14:07;;;;;;;0.80;0.80;;;6.70;99.90;;;;;;5068643;28;20770;-79
2022/12/21 06:16:32;;;;;;;0.77;0.77;;;6.80;99.90;;;;;;5069843;28;20179;-78
2022/12/21 06:18:58;;;;;;;0.70;0.70;;;6.90;99.90;;;;;;5069839;28;20183;-79
2022/12/21 06:21:24;;;;;;;0.60;0.60;;;;;;;;;;5070135;28;20171;-79
2022/12/21 06:23:50;;;;;;;0.80;0.80;;;;;;;;;;5066367;28;20305;-80
2022/12/21 06:26:17;;;;;;;0.80;0.80;;;;;;;;;;5062394;28;20179;-79
2022/12/21 06:28:47;;;;;;;0.77;0.77;;;;;;;;;;5061575;28;20225;-79
2022/12/21 06:31:13;;;;;;;0.87;0.87;;;;;;;;;;5062341;28;20222;-79
2022/12/21 06:33:39;;;;;;;0.70;0.70;;;;;;;;;;5063142;28;20641;-78
2022/12/21 06:36:06;;;;;;;0.60;0.60;;;;;;;;;;5063437;28;20179;-80
2022/12/21 06:38:33;;;;;;;0.70;0.70;;;;;;;;;;5064148;28;20347;-80
2022/12/21 06:41:00;;;;;;;0.70;0.70;;;;;;;;;;5064127;28;20183;-80
2022/12/21 06:43:27;;;;;;;0.73;0.73;;;;;;;;;;5065801;28;20630;-79
2022/12/21 06:45:57;;;;;;;0.70;0.70;;;;;;;;;;5068513;28;20211;-79
2022/12/21 06:48:23;;;;;;;0.70;0.70;;;;;;;;;;5066792;28;20184;-78
2022/12/21 06:50:53;;;;;;;0.70;0.70;;;;;;;;;;5065553;28;20215;-78
2022/12/21 06:53:19;;;;;;;0.63;0.63;;;;;;;;;;5063902;28;20206;-78
2022/12/21 06:55:44;;;;;;;0.67;0.67;;;6.90;99.90;;;;;;5063379;28;20174;-78
2022/12/21 06:58:10;;;;;;;0.60;0.60;;;;;;;;;;5063466;28;20175;-78
2022/12/21 07:00:36;;;;;;;0.80;0.80;;;;;;;;;;5064117;28;20512;-78
2022/12/21 07:03:02;;;;;;;0.70;0.70;;;;;;;;;;5062226;28;20315;-77
2022/12/21 07:05:29;;;;;;;0.70;0.70;;;;;;;;;;5063080;28;20179;-77
2022/12/21 07:07:55;;;;;;;0.80;0.80;;;;;;;;;;5062621;28;20175;-78
2022/12/21 07:10:21;;;;;;;0.70;0.70;;;;;;;;;;5062288;28;20210;-78
2022/12/21 07:12:47;;;;;;;0.70;0.70;;;;;;;;;;5060873;28;20241;-79
2022/12/21 07:15:13;;;;;;;0.70;0.70;;;;;;;;;;5062723;28;20183;-78
2022/12/21 07:17:40;;;;;;;0.70;0.70;;;;;;;;;;5063406;28;20215;-78
2022/12/21 07:20:06;;;;;;;0.87;0.87;;;;;;;;;;5063247;28;20207;-78
2022/12/21 07:22:32;;;;;;;0.90;0.90;;;;;;;;;;5061828;28;20636;-77
2022/12/21 07:24:58;;;;;;;0.90;0.90;;;;;;;;;;5060632;28;20651;-78
2022/12/21 07:27:24;;;;;;;0.63;0.63;;;;;;;;;;5061038;28;20183;-78
2022/12/21 07:29:50;;;;;;;0.83;0.83;;;;;;;;;;5061669;28;20393;-77
2022/12/21 07:32:16;;;;;;;0.80;0.80;;;;;;;;;;5060693;28;20175;-79
2022/12/21 07:34:42;;;;;;;0.80;0.80;;;;;;;;;;5060863;28;20191;-78
2022/12/21 07:37:08;;;;;;;0.70;0.70;;;;;;;;;;5060418;28;20266;-78
2022/12/21 07:39:34;;;;;;;0.70;0.70;;;;;;;;;;5060374;28;20179;-78
2022/12/21 07:42:00;;;;;;;0.70;0.70;;;;;;;;;;5060948;28;20206;-78
2022/12/21 07:44:26;;;;;;;0.80;0.80;;;;;;;;;;5061719;28;20674;-80
2022/12/21 07:46:52;;;;;;;0.80;0.80;;;;;;;;;;5061418;28;20179;-78
2022/12/21 07:49:18;;;;;;;0.70;0.70;;;;;;;;;;5060129;28;20213;-78
2022/12/21 07:51:44;;;;;;;0.60;0.60;;;;;;;;;;5060049;28;20190;-78
2022/12/21 07:54:10;;;;;;;0.73;0.73;;;;;;;;;;5059831;28;20200;-78
2022/12/21 07:56:36;;;;;;;0.90;0.90;;;;;;;;;;5060639;28;20207;-78
2022/12/21 07:59:02;;;;;;;0.70;0.70;;;;;;;;;;5060169;28;20180;-78
2022/12/21 08:01:28;;;;;;;0.80;0.80;;;;;;;;;;5060537;28;20183;-79
2022/12/21 08:03:56;;;;;;;0.70;0.70;;;;;;;;;;5059772;28;20541;-78
2022/12/21 08:06:22;;;;;;;0.70;0.70;;;;;;;;;;5059851;28;20179;-78
2022/12/21 08:08:48;;;;;;;0.73;0.73;;;;;;;;;;5061403;28;20182;-79
2022/12/21 08:11:18;;;;;;;0.80;0.80;;;;;;;;;;5061032;28;20712;-79
2022/12/21 08:13:45;;;;;;;0.70;0.70;;;;;;;;;;5060714;28;20258;-79
2022/12/21 08:16:12;;;;;;;0.70;0.70;;;;;;;;;;5060503;28;20179;-78
2022/12/21 08:18:38;;;;;;;0.80;0.80;;;;;;;;;;5061543;28;20559;-78
2022/12/21 08:21:04;;;;;;;0.80;0.80;;;;;;;;;;5059802;28;20546;-78
2022/12/21 08:23:30;;;;;;;0.77;0.77;;;;;;;;;;5057990;28;20203;-78
2022/12/21 08:26:03;;;;;;;0.73;0.73;;;;;;;;;;5059624;28;20199;-78
2022/12/21 08:28:29;;;;;;;0.80;0.80;;;;;;;;;;5059039;28;20186;-78
2022/12/21 08:31:06;;;;;;;0.70;0.70;;;;;;;;;;5058148;28;20214;-77
2022/12/21 08:33:32;;;;;;;0.60;0.60;;;;;;;;;;5056826;28;20237;-78
2022/12/21 08:35:58;;;;;;;0.70;0.70;;;;;;;;;;5058374;28;20758;-77
2022/12/21 08:38:25;;;;;;;0.60;0.60;;;;;;;;;;5058101;28;20187;-78
2022/12/21 08:40:51;;;;;;;0.70;0.70;;;;;;;;;;5057981;28;20186;-78
2022/12/21 08:43:17;;;;;;;0.63;0.63;;;;;;;;;;5058274;28;20191;-77
2022/12/21 08:45:44;;;;;;;0.67;0.67;;;;;;;;;;5059732;28;20179;-78
2022/12/21 08:48:10;;;;;;;0.70;0.70;;;;;;;;;;5059854;28;20533;-78
2022/12/21 08:50:36;;;;;;;0.87;0.87;;;;;;;;;;5059401;28;20211;-78
2022/12/21 08:53:02;;;;;;;0.80;0.80;;;;;;;;;;5059307;28;20197;-78
2022/12/21 08:55:30;;;;;;;0.70;0.70;;;;;;;;;;5059761;28;20190;-78
2022/12/21 08:57:56;;;;;;;0.70;0.70;;;;;;;;;;5059621;28;20195;-78
2022/12/21 09:00:23;;;;;;;0.70;0.70;;;;;;;;;;5059175;28;20175;-78
2022/12/21 09:02:49;;;;;;;0.80;0.80;;;;;;;;;;5058277;28;20260;-78
2022/12/21 09:05:15;;;;;;;0.80;0.80;;;;;;;;;;5059112;28;20183;-78
2022/12/21 09:07:41;;;;;;;0.63;0.63;;;;;;;;;;5060142;28;20171;-78
2022/12/21 09:10:08;;;;;;;0.70;0.70;;;;;;;;;;5060921;28;20233;-78
2022/12/21 09:12:34;;;;;;;0.80;0.80;;;;;;;;;;5058056;28;20220;-78
2022/12/21 09:15:00;;;;;;;0.70;0.70;;;;;;;;;;5059281;28;20179;-77
2022/12/21 09:17:25;;;;;;;0.70;0.70;;;;;;;;;;5058867;28;20222;-77
2022/12/21 09:19:51;;;;;;;0.70;0.70;;;;;;;;;;5058295;28;20171;-78
2022/12/21 09:22:17;;;;;;;0.70;0.70;;;;;;;;;;5060760;28;20179;-77
2022/12/21 09:24:44;;;;;;;0.67;0.67;;;;;;;;;;5063737;28;20735;-77
2022/12/21 09:27:10;;;;;;;0.60;0.60;;;;;;;;;;5066610;28;20197;-77
2022/12/21 09:29:36;;;;;;;0.70;0.70;;;;;;;;;;5064568;28;20222;-78
2022/12/21 09:32:02;;;;;;;0.80;0.80;;;;;;;;;;5059977;28;20267;-77
2022/12/21 09:34:29;;;;;;;0.70;0.70;;;;;;;;;;5064860;28;20210;-78
2022/12/21 09:36:55;;;;;;;0.60;0.60;;;;;;;;;;5065032;28;20191;-77
2022/12/21 09:39:21;;;;;;;0.70;0.70;;;;;;;;;;5062138;28;20239;-77
2022/12/21 09:42:10;;;;;;;0.70;0.70;;;;;;;;;;5064351;28;20182;-78
2022/12/21 09:44:41;;;;;;;0.70;0.70;;;;;;;;;;5044466;28;20237;-77
2022/12/21 09:47:11;;;;;;;0.70;0.70;;;;;;;;;;5062340;28;20175;-78
2022/12/21 09:49:40;;;;;;;0.70;0.70;;;;;;;;;;5057783;28;20218;-77
2022/12/21 09:52:12;;;;;;;0.70;0.70;;;;;;;;;;5058987;28;20218;-78
2022/12/21 09:54:44;;;;;;;0.63;0.63;;;;;;;;;;5059161;28;20574;-77
2022/12/21 09:57:14;;;;;;;0.60;0.60;;;;;;;;;;5060452;28;20670;-78
2022/12/21 09:59:40;;;;;;;0.73;0.73;;;;;;;;;;5060837;28;20706;-78
2022/12/21 10:02:06;;;;;;;0.80;0.80;;;;;;;;;;5060662;28;20229;-77
2022/12/21 10:04:44;;;;;;;0.70;0.70;;;;;;;;;;5062670;28;20672;-79
2022/12/21 10:07:29;;;;;;;0.80;0.80;;;;;;;;;;5063592;28;20174;-78
2022/12/21 10:09:57;;;;;;;0.60;0.60;;;;;;;;;;5068714;28;20233;-77
2022/12/21 10:12:29;;;;;;;0.73;0.73;;;;;;;;;;5069549;28;20171;-78
2022/12/21 10:15:19;;;;;;;0.80;0.80;;;;;;;;;;5065970;28;20178;-78
2022/12/21 10:17:48;;;;;;;0.70;0.70;;;;;;;;;;5056837;28;20205;-77
2022/12/21 10:20:27;;;;;;;0.70;0.70;;;;;;;;;;5066977;28;20182;-78
2022/12/21 10:22:55;;;;;;;0.70;0.70;;;;;;;;;;5064500;28;20731;-78
2022/12/21 10:25:22;;;;;;;0.80;0.80;;;;;;;;;;5065314;28;20178;-78
2022/12/21 10:27:50;;;;;;;0.60;0.60;;;;;;;;;;5066445;28;20317;-78
2022/12/21 10:30:16;;;;;;;0.60;0.60;;;;;;;;;;5066651;28;20218;-78
2022/12/21 10:32:45;;;;;;;0.60;0.60;;;;;;;;;;5065364;28;20191;-78
2022/12/21 10:35:17;;;;;;;0.63;0.63;;;;;;;;;;5064763;28;20238;-78
2022/12/21 10:37:48;;;;;;;0.60;0.60;;;;;;;;;;5064406;28;20182;-78
2022/12/21 10:40:14;;;;;;;0.60;0.60;;;;;;;;;;5064786;28;20186;-78
2022/12/21 10:42:42;;;;;;;0.70;0.70;;;;;;;;;;5063600;28;20268;-78
2022/12/21 10:45:15;;;;;;;0.50;0.50;;;;;;;;;;5064045;28;20566;-78
2022/12/21 10:47:43;;;;;;;0.80;0.80;;;;;;;;;;5064678;28;20183;-78
2022/12/21 10:50:17;;;;;;;0.60;0.60;;;;;;;;;;5064637;28;20223;-78
2022/12/21 10:52:45;;;;;;;0.70;0.70;;;;;;;;;;5063693;28;20183;-79
2022/12/21 10:55:20;;;;;;;0.70;0.70;;;;;;;;;;5063801;28;20236;-78
2022/12/21 10:57:55;;;;;;;0.70;0.70;;;;;;;;;;5063601;28;20270;-78
2022/12/21 11:00:21;;;;;;;0.70;0.70;;;;;;;;;;5062829;28;20647;-78
2022/12/21 11:02:48;;;;;;;0.60;0.60;;;;;;;;;;5063410;28;20261;-79
2022/12/21 11:05:49;;;;;;;0.60;0.60;;;;;;;;;;5063566;28;20185;-78
2022/12/21 11:08:15;;;;;;;0.60;0.60;;;;;;;;;;5020654;28;20184;-79
2022/12/21 11:10:42;;;;;;;0.70;0.70;;;;;;;;;;5054911;28;20229;-78
2022/12/21 11:13:10;;;;;;;0.70;0.70;;;;;;;;;;5061063;28;20199;-79
2022/12/21 11:15:36;;;;;;;0.70;0.70;;;;;;;;;;5062899;28;20182;-79
2022/12/21 11:18:02;;;;;;;0.50;0.50;;;;;;;;;;5062461;28;20195;-78
2022/12/21 11:20:28;;;;;;;0.60;0.60;;;;;;;;;;5063124;28;20175;-79
2022/12/21 11:22:56;;;;;;;0.70;0.70;;;;;;;;;;5063419;28;20203;-79
2022/12/21 11:25:24;;;;;;;0.67;0.67;;;;;;;;;;5062822;28;20221;-79
2022/12/21 11:27:50;;;;;;;0.67;0.67;;;;;;;;;;5061698;28;20175;-79
2022/12/21 11:30:31;;;;;;;0.60;0.60;;;;;;;;;;5061541;28;20249;-79
2022/12/21 11:32:58;;;;;;;0.60;0.60;;;;;;;;;;5061576;28;20207;-78
2022/12/21 11:35:34;;;;;;;0.60;0.60;;;;;;;;;;5061975;28;20613;-78
2022/12/21 11:38:08;;;;;;;0.60;0.60;;;;;;;;;;5063713;28;20179;-78
2022/12/21 11:40:34;;;;;;;0.60;0.60;;;;;;;;;;5062521;28;20183;-78
2022/12/21 11:43:00;;;;;;;0.57;0.57;;;;;;;;;;5061282;28;20232;-79
2022/12/21 11:45:41;;;;;;;0.50;0.50;;;;;;;;;;5061727;28;20216;-78
2022/12/21 11:48:10;;;;;;;0.60;0.60;;;;;;;;;;5060512;28;20265;-78
2022/12/21 11:50:42;;;;;;;0.50;0.50;;;;;;;;;;5059153;28;20210;-78
2022/12/21 11:53:27;;;;;;;0.50;0.50;;;;;;;;;;5056465;28;20680;-78
2022/12/21 11:55:56;;;;;;;0.50;0.50;;;;;;;;;;5056010;28;20249;-77
2022/12/21 11:58:33;;;;;;;0.50;0.50;;;;;;;;;;5056145;28;20183;-78
2022/12/21 12:01:15;;;;;;;0.60;0.60;;;;;;;;;;5056382;28;20180;-77
2022/12/21 12:03:47;;;;;;;0.60;0.60;;;;;;;;;;5055383;28;20198;-77
2022/12/21 12:06:28;;;;;;;0.80;0.80;;;;;;;;;;5057617;28;20186;-77
2022/12/21 12:08:57;;;;;;;0.40;0.40;;;;;;;;;;5057364;28;20286;-78
2022/12/21 12:11:29;;;;;;;0.50;0.50;;;;;;;;;;5057695;28;20218;-76
2022/12/21 12:14:08;;;;;;;0.50;0.50;;;;;;;;;;5056506;28;20226;-78
2022/12/21 12:16:47;;;;;;;0.43;0.43;;;;;;;;;;5055751;28;20167;-77
2022/12/21 12:19:20;;;;;;;0.50;0.50;;;;;;;;;;5054224;28;20217;-77
2022/12/21 12:21:52;;;;;;;0.60;0.60;;;;;;;;;;5054630;28;20270;-77
2022/12/21 12:24:40;;;;;;;0.60;0.60;;;;;;;;;;5056902;28;20199;-77
2022/12/21 12:27:20;;;;;;;0.50;0.50;;;;;;;;;;5056726;28;20183;-77
2022/12/21 12:30:07;;;;;;;0.40;0.40;;;;;;;;;;5054760;28;20202;-77
2022/12/21 12:32:36;;;;;;;0.50;0.50;;;;;;;;;;5054472;28;20182;-78
2022/12/21 12:35:14;;;;;;;0.50;0.50;;;;;;;;;;5056472;28;20252;-77
2022/12/21 12:37:55;;;;;;;0.50;0.50;;;;;;;;;;5054156;28;20211;-76
2022/12/21 12:40:41;;;;;;;0.50;0.50;;;;;;;;;;5053606;28;20267;-75
2022/12/21 12:43:18;;;;;;;0.50;0.50;;;;;;;;;;5052544;28;20230;-76
2022/12/21 12:46:02;;;;;;;0.50;0.50;;;;;;;;;;5053298;28;20258;-77
2022/12/21 12:48:49;;;;;;;0.40;0.40;;;;;;;;;;5053126;28;20182;-76
2022/12/21 12:51:24;;;;;;;0.40;0.40;;;;;;;;;;5052985;28;20218;-77
2022/12/21 12:53:50;;;;;;;0.40;0.40;;;;;;;;;;5052535;28;20218;-77
2022/12/21 12:56:23;;;;;;;0.50;0.50;;;;;;;;;;5052716;28;20640;-76
2022/12/21 12:59:14;;;;;;;0.30;0.30;;;;;;;;;;5053105;28;20233;-76
2022/12/21 13:01:43;;;;;;;0.40;0.40;;;;;;;;;;5052437;28;20683;-76
2022/12/21 13:04:21;;;;;;;0.30;0.30;;;;;;;;;;5051856;28;20723;-76
2022/12/21 13:06:53;;;;;;;0.40;0.40;;;;;;;;;;5052751;28;20179;-77
2022/12/21 13:09:22;;;;;;;0.43;0.43;;;;;;;;;;5052556;28;20262;-76
2022/12/21 13:11:54;;;;;;;0.47;0.47;;;;;;;;;;5052517;28;20254;-76
2022/12/21 13:14:34;;;;;;;0.40;0.40;;;7.40;99.90;;;;;;5052018;28;20198;-76
2022/12/21 13:17:05;;;;;;;0.50;0.50;;;14.70;1.00;;;;;;5052969;28;20586;-78
2022/12/21 13:19:31;;;;;;;0.47;0.47;;;14.20;1.00;;;;;;5054784;28;20233;-76
2022/12/21 13:22:02;;;;;;;0.50;0.50;;;13.80;1.00;;;;;;5053397;28;20202;-77
2022/12/21 13:24:38;;;;;;;0.50;0.50;;;13.50;99.90;;;;;;5052870;28;20295;-77
2022/12/21 13:27:17;;;;;;;0.43;0.43;;;13.20;99.90;;;;;;5053547;28;20201;-76
2022/12/21 13:30:02;;;;;;;0.47;0.47;;;13.00;99.90;;;;;;5052894;28;20241;-76
2022/12/21 13:32:33;;;;;;;0.50;0.50;;;12.80;3.60;;;;;;5051755;28;20175;-76
2022/12/21 13:35:17;;;;;;;0.50;0.50;;;12.60;99.90;;;;;;5051882;28;20202;-76
2022/12/21 13:37:44;;;;;;;0.60;0.60;;;12.50;99.90;;;;;;5044913;28;20633;-76
2022/12/21 13:40:15;;;;;;;0.60;0.60;;;;;;;;;;5031870;28;20191;-76
2022/12/21 13:43:03;;;;;;;0.50;0.50;;;;;;;;;;5031931;28;20178;-77
2022/12/21 13:45:51;;;;;;;0.53;0.53;;;;;;;;;;5033223;28;20186;-77
2022/12/21 13:48:20;;;;;;;0.43;0.43;;;;;;;;;;5032927;28;20176;-77
2022/12/21 13:51:01;;;;;;;0.43;0.43;;;;;;;;;;5033449;28;20711;-76
2022/12/21 13:53:39;;;;;;;0.47;0.47;;;;;;;;;;5031735;28;20203;-76
2022/12/21 13:56:14;;;;;;;0.40;0.40;;;;;;;;;;5032243;28;20241;-76
2022/12/21 13:58:43;;;;;;;0.40;0.40;;;;;;;;;;5032167;28;20742;-77
2022/12/21 14:01:26;;;;;;;0.40;0.40;;;;;;;;;;5027434;28;20176;-76
2022/12/21 14:04:10;;;;;;;0.50;0.50;;;;;;;;;;5015424;28;20196;-76
2022/12/21 14:06:42;;;;;;;0.47;0.47;;;;;;;;;;5016057;28;20176;-76
2022/12/21 14:09:23;;;;;;;0.50;0.50;;;;;;;;;;5011112;28;20187;-75
2022/12/21 14:11:52;;;;;;;0.50;0.50;;;;;;;;;;5011579;28;20184;-76
2022/12/21 14:14:19;;;;;;;0.40;0.40;;;;;;;;;;5010328;28;20215;-77
2022/12/21 14:16:45;;;;;;;0.50;0.50;;;;;;;;;;5013702;28;20188;-76
2022/12/21 14:19:15;;;;;;;0.40;0.40;;;;;;;;;;5016062;28;20196;-77
2022/12/21 14:21:44;;;;;;;0.60;0.60;;;;;;;;;;5011440;28;20177;-76
2022/12/21 14:24:21;;;;;;;0.50;0.50;;;;;;;;;;5012114;28;20646;-77
2022/12/21 14:26:47;;;;;;;0.40;0.40;;;;;;;;;;5011984;28;20190;-77
2022/12/21 14:29:14;;;;;;;0.60;0.60;;;;;;;;;;5011862;28;20180;-76
2022/12/21 14:31:50;;;;;;;0.60;0.60;;;;;;;;;;5010847;28;20192;-77
2022/12/21 14:34:17;;;;;;;0.60;0.60;;;;;;;;;;5010773;28;20215;-76
2022/12/21 14:37:02;;;;;;;0.57;0.57;;;;;;;;;;5015043;28;20230;-76
2022/12/21 14:39:33;;;;;;;0.60;0.60;;;;;;;;;;5010823;28;20664;-76
2022/12/21 14:42:18;;;;;;;0.40;0.40;;;;;;;;;;5010378;28;20242;-76
2022/12/21 14:45:02;;;;;;;0.50;0.50;;;;;;;;;;5010835;28;20206;-75
2022/12/21 14:47:28;;;;;;;0.60;0.60;;;;;;;;;;5013085;28;20211;-76
2022/12/21 14:49:54;;;;;;;0.60;0.60;;;;;;;;;;5030404;28;20235;-75
2022/12/21 14:52:20;;;;;;;0.53;0.53;;;;;;;;;;5030374;28;20188;-76
2022/12/21 14:54:47;;;;;;;0.50;0.50;;;;;;;;;;5030606;28;20669;-75
2022/12/21 14:57:13;;;;;;;0.50;0.50;;;;;;;;;;5031315;28;20192;-76
2022/12/21 14:59:41;;;;;;;0.70;0.70;;;;;;;;;;5031569;28;20184;-76
2022/12/21 15:02:25;;;;;;;0.60;0.60;;;;;;;;;;5030613;28;20718;-76
2022/12/21 15:04:55;;;;;;;0.50;0.50;;;12.30;1.00;;;;;;5033589;28;20244;-76